sensor_id;sensor_type;location;lat;lon;timestamp;temperature;humidity
24035;DHT22;12242;50.952;4.678;2023-05-09T00:00:09;15.20;99.90
24035;DHT22;12242;50.952;4.678;2023-05-09T00:02:38;15.20;99.90
24035;DHT22;12242;50.952;4.678;2023-05-09T00:05:06;15.40;99.90
24035;DHT22;12242;50.952;4.678;2023-05-09T00:07:34;15.50;99.90
24035;DHT22;12242;50.952;4.678;2023-05-09T00:10:02;15.10;99.90
24035;DHT22;12242;50.952;4.678;2023-05-09T00:12:30;15.10;99.90
24035;DHT22;12242;50.952;4.678;2023-05-09T00:14:58;15.00;99.90
24035;DHT22;12242;50.952;4.678;2023-05-09T00:17:25;15.00;99.90
24035;DHT22;12242;50.952;4.678;2023-05-09T00:19:55;15.00;99.90
24035;DHT22;12242;50.952;4.678;2023-05-09T00:22:23;15.10;99.90
24035;DHT22;12242;50.952;4.678;2023-05-09T00:24:51;15.10;99.90
24035;DHT22;12242;50.952;4.678;2023-05-09T00:27:18;15.00;99.90
24035;DHT22;12242;50.952;4.678;2023-05-09T00:29:46;14.90;99.90
24035;DHT22;12242;50.952;4.678;2023-05-09T00:32:14;14.70;99.90
24035;DHT22;12242;50.952;4.678;2023-05-09T00:34:41;14.70;99.90
24035;DHT22;12242;50.952;4.678;2023-05-09T00:37:09;14.80;99.90
24035;DHT22;12242;50.952;4.678;2023-05-09T00:39:37;14.90;99.90
24035;DHT22;12242;50.952;4.678;2023-05-09T00:42:05;15.00;99.90
24035;DHT22;12242;50.952;4.678;2023-05-09T00:44:33;15.30;99.90
24035;DHT22;12242;50.952;4.678;2023-05-09T00:47:00;15.50;99.90
24035;DHT22;12242;50.952;4.678;2023-05-09T00:49:28;15.70;99.90
24035;DHT22;12242;50.952;4.678;2023-05-09T00:51:56;15.70;99.90
24035;DHT22;12242;50.952;4.678;2023-05-09T00:54:23;15.40;99.90
24035;DHT22;12242;50.952;4.678;2023-05-09T00:56:51;15.30;99.90
24035;DHT22;12242;50.952;4.678;2023-05-09T00:59:19;15.30;99.90
24035;DHT22;12242;50.952;4.678;2023-05-09T01:01:48;15.50;99.90
24035;DHT22;12242;50.952;4.678;2023-05-09T01:04:15;15.60;99.90
24035;DHT22;12242;50.952;4.678;2023-05-09T01:12:25;15.60;99.90
24035;DHT22;12242;50.952;4.678;2023-05-09T01:18:02;15.20;99.90
24035;DHT22;12242;50.952;4.678;2023-05-09T01:20:37;15.00;99.90
24035;DHT22;12242;50.952;4.678;2023-05-09T01:26:04;15.40;99.90
24035;DHT22;12242;50.952;4.678;2023-05-09T01:31:12;15.80;99.90
24035;DHT22;12242;50.952;4.678;2023-05-09T01:33:41;15.90;99.90
24035;DHT22;12242;50.952;4.678;2023-05-09T01:36:16;15.70;99.90
24035;DHT22;12242;50.952;4.678;2023-05-09T01:38:47;15.50;99.90
24035;DHT22;12242;50.952;4.678;2023-05-09T01:41:17;15.30;99.90
24035;DHT22;12242;50.952;4.678;2023-05-09T01:43:46;15.10;99.90
24035;DHT22;12242;50.952;4.678;2023-05-09T01:46:16;15.00;99.90
24035;DHT22;12242;50.952;4.678;2023-05-09T01:48:44;15.10;99.90
24035;DHT22;12242;50.952;4.678;2023-05-09T01:51:14;15.10;99.90
24035;DHT22;12242;50.952;4.678;2023-05-09T01:53:43;15.40;99.90
24035;DHT22;12242;50.952;4.678;2023-05-09T01:56:11;15.10;99.90
24035;DHT22;12242;50.952;4.678;2023-05-09T01:58:40;14.90;99.90
24035;DHT22;12242;50.952;4.678;2023-05-09T02:01:09;14.80;99.90
24035;DHT22;12242;50.952;4.678;2023-05-09T02:03:37;14.70;99.90
24035;DHT22;12242;50.952;4.678;2023-05-09T02:06:05;14.90;99.90
24035;DHT22;12242;50.952;4.678;2023-05-09T02:08:34;15.10;99.90
24035;DHT22;12242;50.952;4.678;2023-05-09T02:11:02;15.30;99.90
24035;DHT22;12242;50.952;4.678;2023-05-09T02:13:29;15.50;99.90
24035;DHT22;12242;50.952;4.678;2023-05-09T02:15:57;15.20;99.90
24035;DHT22;12242;50.952;4.678;2023-05-09T02:18:25;15.00;99.90
24035;DHT22;12242;50.952;4.678;2023-05-09T02:20:53;15.10;99.90
24035;DHT22;12242;50.952;4.678;2023-05-09T02:23:21;15.00;99.90
24035;DHT22;12242;50.952;4.678;2023-05-09T02:25:49;15.10;99.90
24035;DHT22;12242;50.952;4.678;2023-05-09T02:28:17;15.00;99.90
24035;DHT22;12242;50.952;4.678;2023-05-09T02:30:46;14.90;99.90
24035;DHT22;12242;50.952;4.678;2023-05-09T02:33:16;14.70;99.90
24035;DHT22;12242;50.952;4.678;2023-05-09T02:35:45;14.60;99.90
24035;DHT22;12242;50.952;4.678;2023-05-09T02:38:13;14.60;99.90
24035;DHT22;12242;50.952;4.678;2023-05-09T02:40:42;14.60;99.90
24035;DHT22;12242;50.952;4.678;2023-05-09T02:43:10;14.60;99.90
24035;DHT22;12242;50.952;4.678;2023-05-09T02:45:38;14.60;99.90
24035;DHT22;12242;50.952;4.678;2023-05-09T02:48:06;14.60;99.90
24035;DHT22;12242;50.952;4.678;2023-05-09T02:50:35;14.50;99.90
24035;DHT22;12242;50.952;4.678;2023-05-09T02:53:09;14.40;99.90
24035;DHT22;12242;50.952;4.678;2023-05-09T02:55:36;14.40;99.90
24035;DHT22;12242;50.952;4.678;2023-05-09T02:58:04;14.40;99.90
24035;DHT22;12242;50.952;4.678;2023-05-09T03:00:41;14.40;99.90
24035;DHT22;12242;50.952;4.678;2023-05-09T03:03:09;14.40;99.90
24035;DHT22;12242;50.952;4.678;2023-05-09T03:05:37;14.40;99.90
24035;DHT22;12242;50.952;4.678;2023-05-09T03:08:04;14.60;99.90
24035;DHT22;12242;50.952;4.678;2023-05-09T03:10:32;14.80;99.90
24035;DHT22;12242;50.952;4.678;2023-05-09T03:13:00;14.80;99.90
24035;DHT22;12242;50.952;4.678;2023-05-09T03:15:27;14.80;99.90
24035;DHT22;12242;50.952;4.678;2023-05-09T03:17:55;14.60;99.90
24035;DHT22;12242;50.952;4.678;2023-05-09T03:20:22;14.50;99.90
24035;DHT22;12242;50.952;4.678;2023-05-09T03:22:50;14.60;99.90
24035;DHT22;12242;50.952;4.678;2023-05-09T03:25:18;14.70;99.90
24035;DHT22;12242;50.952;4.678;2023-05-09T03:27:45;14.70;99.90
24035;DHT22;12242;50.952;4.678;2023-05-09T03:30:13;14.70;99.90
24035;DHT22;12242;50.952;4.678;2023-05-09T03:32:41;14.60;99.90
24035;DHT22;12242;50.952;4.678;2023-05-09T03:35:08;14.50;99.90
24035;DHT22;12242;50.952;4.678;2023-05-09T03:37:36;14.50;99.90
24035;DHT22;12242;50.952;4.678;2023-05-09T03:40:04;14.70;99.90
24035;DHT22;12242;50.952;4.678;2023-05-09T03:42:33;14.70;99.90
24035;DHT22;12242;50.952;4.678;2023-05-09T03:45:00;14.70;99.90
24035;DHT22;12242;50.952;4.678;2023-05-09T03:47:28;14.80;99.90
24035;DHT22;12242;50.952;4.678;2023-05-09T03:49:56;14.90;99.90
24035;DHT22;12242;50.952;4.678;2023-05-09T03:52:23;14.90;99.90
24035;DHT22;12242;50.952;4.678;2023-05-09T03:54:51;14.90;99.90
24035;DHT22;12242;50.952;4.678;2023-05-09T03:57:18;15.10;99.90
24035;DHT22;12242;50.952;4.678;2023-05-09T03:59:46;15.10;99.90
24035;DHT22;12242;50.952;4.678;2023-05-09T04:02:13;15.00;99.90
24035;DHT22;12242;50.952;4.678;2023-05-09T04:04:42;15.00;99.90
24035;DHT22;12242;50.952;4.678;2023-05-09T04:07:09;15.00;99.90
24035;DHT22;12242;50.952;4.678;2023-05-09T04:09:37;14.90;99.90
24035;DHT22;12242;50.952;4.678;2023-05-09T04:12:05;14.80;99.90
24035;DHT22;12242;50.952;4.678;2023-05-09T04:14:33;14.90;99.90
24035;DHT22;12242;50.952;4.678;2023-05-09T04:17:00;14.90;99.90
24035;DHT22;12242;50.952;4.678;2023-05-09T04:19:28;15.00;99.90
24035;DHT22;12242;50.952;4.678;2023-05-09T04:21:56;14.90;99.90
24035;DHT22;12242;50.952;4.678;2023-05-09T04:24:23;14.90;99.90
24035;DHT22;12242;50.952;4.678;2023-05-09T04:26:51;14.90;99.90
24035;DHT22;12242;50.952;4.678;2023-05-09T04:29:18;15.10;99.90
24035;DHT22;12242;50.952;4.678;2023-05-09T04:31:46;15.20;99.90
24035;DHT22;12242;50.952;4.678;2023-05-09T04:34:14;15.30;99.90
24035;DHT22;12242;50.952;4.678;2023-05-09T04:36:42;15.20;99.90
24035;DHT22;12242;50.952;4.678;2023-05-09T04:39:09;15.20;99.90
24035;DHT22;12242;50.952;4.678;2023-05-09T04:41:37;15.20;99.90
24035;DHT22;12242;50.952;4.678;2023-05-09T04:44:05;15.20;99.90
24035;DHT22;12242;50.952;4.678;2023-05-09T04:46:32;15.30;99.90
24035;DHT22;12242;50.952;4.678;2023-05-09T04:49:00;15.50;99.90
24035;DHT22;12242;50.952;4.678;2023-05-09T04:51:28;15.40;99.90
24035;DHT22;12242;50.952;4.678;2023-05-09T04:54:04;15.50;99.90
24035;DHT22;12242;50.952;4.678;2023-05-09T04:56:33;15.60;99.90
24035;DHT22;12242;50.952;4.678;2023-05-09T04:59:00;15.70;99.90
24035;DHT22;12242;50.952;4.678;2023-05-09T05:01:28;15.60;99.90
24035;DHT22;12242;50.952;4.678;2023-05-09T05:03:55;15.80;99.90
24035;DHT22;12242;50.952;4.678;2023-05-09T05:06:24;15.90;99.90
24035;DHT22;12242;50.952;4.678;2023-05-09T05:08:51;16.00;99.90
24035;DHT22;12242;50.952;4.678;2023-05-09T05:11:19;16.00;99.90
24035;DHT22;12242;50.952;4.678;2023-05-09T05:13:48;15.90;99.90
24035;DHT22;12242;50.952;4.678;2023-05-09T05:16:15;16.10;99.90
24035;DHT22;12242;50.952;4.678;2023-05-09T05:18:43;16.10;99.90
24035;DHT22;12242;50.952;4.678;2023-05-09T05:21:11;15.70;99.90
24035;DHT22;12242;50.952;4.678;2023-05-09T05:23:38;15.90;99.90
24035;DHT22;12242;50.952;4.678;2023-05-09T05:26:06;15.80;99.90
24035;DHT22;12242;50.952;4.678;2023-05-09T05:28:33;15.50;99.90
24035;DHT22;12242;50.952;4.678;2023-05-09T05:31:01;15.60;99.90
24035;DHT22;12242;50.952;4.678;2023-05-09T05:33:28;15.60;99.90
24035;DHT22;12242;50.952;4.678;2023-05-09T05:35:56;15.60;99.90
24035;DHT22;12242;50.952;4.678;2023-05-09T05:38:23;15.60;99.90
24035;DHT22;12242;50.952;4.678;2023-05-09T05:40:51;15.70;99.90
24035;DHT22;12242;50.952;4.678;2023-05-09T05:43:18;15.80;99.90
24035;DHT22;12242;50.952;4.678;2023-05-09T05:45:46;15.70;99.90
24035;DHT22;12242;50.952;4.678;2023-05-09T05:48:14;15.40;99.90
24035;DHT22;12242;50.952;4.678;2023-05-09T05:50:41;15.50;99.90
24035;DHT22;12242;50.952;4.678;2023-05-09T05:53:09;15.50;99.90
24035;DHT22;12242;50.952;4.678;2023-05-09T05:55:36;15.40;99.90
24035;DHT22;12242;50.952;4.678;2023-05-09T05:58:04;15.50;99.90
24035;DHT22;12242;50.952;4.678;2023-05-09T06:00:33;15.50;99.90
24035;DHT22;12242;50.952;4.678;2023-05-09T06:03:00;15.40;99.90
24035;DHT22;12242;50.952;4.678;2023-05-09T06:05:28;15.10;99.90
24035;DHT22;12242;50.952;4.678;2023-05-09T06:07:56;15.10;99.90
24035;DHT22;12242;50.952;4.678;2023-05-09T06:10:23;15.00;99.90
24035;DHT22;12242;50.952;4.678;2023-05-09T06:12:51;15.00;99.90
24035;DHT22;12242;50.952;4.678;2023-05-09T06:15:18;14.90;99.90
24035;DHT22;12242;50.952;4.678;2023-05-09T06:17:46;14.90;99.90
24035;DHT22;12242;50.952;4.678;2023-05-09T06:20:14;14.80;99.90
24035;DHT22;12242;50.952;4.678;2023-05-09T06:22:41;14.80;99.90
24035;DHT22;12242;50.952;4.678;2023-05-09T06:25:09;14.70;99.90
24035;DHT22;12242;50.952;4.678;2023-05-09T06:27:37;14.60;99.90
24035;DHT22;12242;50.952;4.678;2023-05-09T06:30:05;14.60;99.90
24035;DHT22;12242;50.952;4.678;2023-05-09T06:32:52;14.60;99.90
24035;DHT22;12242;50.952;4.678;2023-05-09T06:35:20;14.60;99.90
24035;DHT22;12242;50.952;4.678;2023-05-09T06:37:48;14.70;99.90
24035;DHT22;12242;50.952;4.678;2023-05-09T06:40:16;14.80;99.90
24035;DHT22;12242;50.952;4.678;2023-05-09T06:42:44;14.90;99.90
24035;DHT22;12242;50.952;4.678;2023-05-09T06:45:12;15.10;99.90
24035;DHT22;12242;50.952;4.678;2023-05-09T06:47:40;15.20;99.90
24035;DHT22;12242;50.952;4.678;2023-05-09T06:50:07;15.30;99.90
24035;DHT22;12242;50.952;4.678;2023-05-09T06:52:35;15.30;99.90
24035;DHT22;12242;50.952;4.678;2023-05-09T06:55:03;15.30;99.90
24035;DHT22;12242;50.952;4.678;2023-05-09T06:57:31;15.30;99.90
24035;DHT22;12242;50.952;4.678;2023-05-09T06:59:58;15.30;99.90
24035;DHT22;12242;50.952;4.678;2023-05-09T07:02:26;15.40;99.90
24035;DHT22;12242;50.952;4.678;2023-05-09T07:05:28;15.40;99.90
24035;DHT22;12242;50.952;4.678;2023-05-09T07:07:56;15.40;99.90
24035;DHT22;12242;50.952;4.678;2023-05-09T07:10:23;15.50;99.90
24035;DHT22;12242;50.952;4.678;2023-05-09T07:12:51;15.50;99.90
24035;DHT22;12242;50.952;4.678;2023-05-09T07:15:19;15.60;99.90
24035;DHT22;12242;50.952;4.678;2023-05-09T07:18:03;15.60;99.90
24035;DHT22;12242;50.952;4.678;2023-05-09T07:20:30;15.60;99.90
24035;DHT22;12242;50.952;4.678;2023-05-09T07:22:58;15.70;99.90
24035;DHT22;12242;50.952;4.678;2023-05-09T07:25:26;15.70;99.90
24035;DHT22;12242;50.952;4.678;2023-05-09T07:27:53;15.80;99.90
24035;DHT22;12242;50.952;4.678;2023-05-09T07:30:21;15.60;99.90
24035;DHT22;12242;50.952;4.678;2023-05-09T07:32:49;15.60;99.90
24035;DHT22;12242;50.952;4.678;2023-05-09T07:35:17;15.70;99.90
24035;DHT22;12242;50.952;4.678;2023-05-09T07:37:46;15.60;99.90
24035;DHT22;12242;50.952;4.678;2023-05-09T07:40:13;15.70;99.90
24035;DHT22;12242;50.952;4.678;2023-05-09T07:42:42;15.60;99.90
24035;DHT22;12242;50.952;4.678;2023-05-09T07:45:16;15.60;99.90
24035;DHT22;12242;50.952;4.678;2023-05-09T07:47:46;15.50;99.90
24035;DHT22;12242;50.952;4.678;2023-05-09T07:50:13;15.50;99.90
24035;DHT22;12242;50.952;4.678;2023-05-09T07:52:41;15.40;99.90
24035;DHT22;12242;50.952;4.678;2023-05-09T07:55:09;15.50;99.90
24035;DHT22;12242;50.952;4.678;2023-05-09T07:57:38;15.60;99.90
24035;DHT22;12242;50.952;4.678;2023-05-09T08:00:07;15.70;99.90
24035;DHT22;12242;50.952;4.678;2023-05-09T08:02:35;15.70;99.90
24035;DHT22;12242;50.952;4.678;2023-05-09T08:05:02;15.60;99.90
24035;DHT22;12242;50.952;4.678;2023-05-09T08:07:30;15.60;99.90
24035;DHT22;12242;50.952;4.678;2023-05-09T08:09:58;15.50;99.90
24035;DHT22;12242;50.952;4.678;2023-05-09T08:12:25;15.60;99.90
24035;DHT22;12242;50.952;4.678;2023-05-09T08:14:53;15.50;99.90
24035;DHT22;12242;50.952;4.678;2023-05-09T08:17:21;15.50;99.90
24035;DHT22;12242;50.952;4.678;2023-05-09T08:19:48;15.60;99.90
24035;DHT22;12242;50.952;4.678;2023-05-09T08:22:19;15.50;99.90
24035;DHT22;12242;50.952;4.678;2023-05-09T08:24:46;15.70;99.90
24035;DHT22;12242;50.952;4.678;2023-05-09T08:27:14;15.80;99.90
24035;DHT22;12242;50.952;4.678;2023-05-09T08:29:42;15.80;99.90
24035;DHT22;12242;50.952;4.678;2023-05-09T08:32:10;16.00;99.90
24035;DHT22;12242;50.952;4.678;2023-05-09T08:34:38;16.00;99.90
24035;DHT22;12242;50.952;4.678;2023-05-09T08:37:06;15.80;99.90
24035;DHT22;12242;50.952;4.678;2023-05-09T08:39:33;15.60;99.90
24035;DHT22;12242;50.952;4.678;2023-05-09T08:42:01;15.60;99.90
24035;DHT22;12242;50.952;4.678;2023-05-09T08:44:30;15.60;99.90
24035;DHT22;12242;50.952;4.678;2023-05-09T08:46:59;15.50;99.90
24035;DHT22;12242;50.952;4.678;2023-05-09T08:49:28;15.30;99.90
24035;DHT22;12242;50.952;4.678;2023-05-09T08:51:56;15.30;99.90
24035;DHT22;12242;50.952;4.678;2023-05-09T08:54:25;15.40;99.90
24035;DHT22;12242;50.952;4.678;2023-05-09T08:56:53;15.50;99.90
24035;DHT22;12242;50.952;4.678;2023-05-09T08:59:21;15.70;99.90
24035;DHT22;12242;50.952;4.678;2023-05-09T09:01:49;15.70;99.90
24035;DHT22;12242;50.952;4.678;2023-05-09T09:04:17;15.40;99.90
24035;DHT22;12242;50.952;4.678;2023-05-09T09:06:45;15.30;99.90
24035;DHT22;12242;50.952;4.678;2023-05-09T09:09:14;15.20;99.90
24035;DHT22;12242;50.952;4.678;2023-05-09T09:11:43;15.00;99.90
24035;DHT22;12242;50.952;4.678;2023-05-09T09:14:13;14.90;99.90
24035;DHT22;12242;50.952;4.678;2023-05-09T09:16:43;15.00;99.90
24035;DHT22;12242;50.952;4.678;2023-05-09T09:19:12;15.20;99.90
24035;DHT22;12242;50.952;4.678;2023-05-09T09:21:44;15.20;99.90
24035;DHT22;12242;50.952;4.678;2023-05-09T09:24:14;15.30;99.90
24035;DHT22;12242;50.952;4.678;2023-05-09T09:26:48;15.20;99.90
24035;DHT22;12242;50.952;4.678;2023-05-09T09:29:17;15.10;99.90
24035;DHT22;12242;50.952;4.678;2023-05-09T09:31:46;15.00;99.90
24035;DHT22;12242;50.952;4.678;2023-05-09T09:34:20;14.90;99.90
24035;DHT22;12242;50.952;4.678;2023-05-09T09:36:48;15.00;99.90
24035;DHT22;12242;50.952;4.678;2023-05-09T09:39:16;15.00;99.90
24035;DHT22;12242;50.952;4.678;2023-05-09T09:41:44;14.90;99.90
24035;DHT22;12242;50.952;4.678;2023-05-09T09:44:19;14.80;99.90
24035;DHT22;12242;50.952;4.678;2023-05-09T09:46:51;14.80;99.90
24035;DHT22;12242;50.952;4.678;2023-05-09T09:49:20;14.80;99.90
24035;DHT22;12242;50.952;4.678;2023-05-09T09:51:55;14.90;99.90
24035;DHT22;12242;50.952;4.678;2023-05-09T09:54:26;14.90;99.90
24035;DHT22;12242;50.952;4.678;2023-05-09T09:56:54;14.80;99.90
24035;DHT22;12242;50.952;4.678;2023-05-09T09:59:24;14.70;99.90
24035;DHT22;12242;50.952;4.678;2023-05-09T10:02:05;14.80;99.90
24035;DHT22;12242;50.952;4.678;2023-05-09T10:04:38;15.00;99.90
24035;DHT22;12242;50.952;4.678;2023-05-09T10:07:10;14.80;99.90
24035;DHT22;12242;50.952;4.678;2023-05-09T10:09:41;14.80;99.90
24035;DHT22;12242;50.952;4.678;2023-05-09T10:12:11;14.60;99.90
24035;DHT22;12242;50.952;4.678;2023-05-09T10:14:41;14.50;99.90
24035;DHT22;12242;50.952;4.678;2023-05-09T10:17:12;14.40;99.90
24035;DHT22;12242;50.952;4.678;2023-05-09T10:19:44;14.50;99.90
24035;DHT22;12242;50.952;4.678;2023-05-09T10:22:14;14.50;99.90
24035;DHT22;12242;50.952;4.678;2023-05-09T10:24:50;14.50;99.90
24035;DHT22;12242;50.952;4.678;2023-05-09T10:27:29;14.40;99.90
24035;DHT22;12242;50.952;4.678;2023-05-09T10:30:08;14.40;99.90
24035;DHT22;12242;50.952;4.678;2023-05-09T10:33:02;14.50;99.90
24035;DHT22;12242;50.952;4.678;2023-05-09T10:35:44;14.70;99.90
24035;DHT22;12242;50.952;4.678;2023-05-09T10:38:12;14.80;99.90
24035;DHT22;12242;50.952;4.678;2023-05-09T10:40:40;14.70;99.90
24035;DHT22;12242;50.952;4.678;2023-05-09T10:43:08;14.90;99.90
24035;DHT22;12242;50.952;4.678;2023-05-09T10:45:35;14.70;99.90
24035;DHT22;12242;50.952;4.678;2023-05-09T10:48:05;14.70;99.90
24035;DHT22;12242;50.952;4.678;2023-05-09T10:50:37;14.70;99.90
24035;DHT22;12242;50.952;4.678;2023-05-09T10:53:08;14.70;99.90
24035;DHT22;12242;50.952;4.678;2023-05-09T10:55:53;14.90;99.90
24035;DHT22;12242;50.952;4.678;2023-05-09T10:58:29;14.80;99.90
24035;DHT22;12242;50.952;4.678;2023-05-09T11:00:58;15.00;99.90
24035;DHT22;12242;50.952;4.678;2023-05-09T11:03:27;15.10;99.90
24035;DHT22;12242;50.952;4.678;2023-05-09T11:05:57;15.20;99.90
24035;DHT22;12242;50.952;4.678;2023-05-09T11:10:54;15.10;99.90
24035;DHT22;12242;50.952;4.678;2023-05-09T11:13:24;15.10;99.90
24035;DHT22;12242;50.952;4.678;2023-05-09T11:18:28;14.90;99.90
24035;DHT22;12242;50.952;4.678;2023-05-09T11:20:57;14.80;99.90
24035;DHT22;12242;50.952;4.678;2023-05-09T11:23:25;14.70;99.90
24035;DHT22;12242;50.952;4.678;2023-05-09T11:26:04;14.60;99.90
24035;DHT22;12242;50.952;4.678;2023-05-09T11:28:35;14.60;99.90
24035;DHT22;12242;50.952;4.678;2023-05-09T11:31:09;14.60;99.90
24035;DHT22;12242;50.952;4.678;2023-05-09T11:33:38;14.50;99.90
24035;DHT22;12242;50.952;4.678;2023-05-09T11:36:27;14.70;99.90
24035;DHT22;12242;50.952;4.678;2023-05-09T11:39:06;14.70;99.90
24035;DHT22;12242;50.952;4.678;2023-05-09T11:41:45;14.70;99.90
24035;DHT22;12242;50.952;4.678;2023-05-09T11:44:17;14.80;99.90
24035;DHT22;12242;50.952;4.678;2023-05-09T11:46:46;14.80;99.90
24035;DHT22;12242;50.952;4.678;2023-05-09T11:49:14;14.90;99.90
24035;DHT22;12242;50.952;4.678;2023-05-09T11:51:43;14.80;99.90
24035;DHT22;12242;50.952;4.678;2023-05-09T11:54:10;14.90;99.90
24035;DHT22;12242;50.952;4.678;2023-05-09T11:56:40;14.60;99.90
24035;DHT22;12242;50.952;4.678;2023-05-09T11:59:08;14.60;99.90
24035;DHT22;12242;50.952;4.678;2023-05-09T12:01:37;14.60;99.90
24035;DHT22;12242;50.952;4.678;2023-05-09T12:04:05;14.70;99.90
24035;DHT22;12242;50.952;4.678;2023-05-09T12:06:34;14.90;99.90
24035;DHT22;12242;50.952;4.678;2023-05-09T12:09:03;14.80;99.90
24035;DHT22;12242;50.952;4.678;2023-05-09T12:11:30;14.70;99.90
24035;DHT22;12242;50.952;4.678;2023-05-09T12:13:58;14.80;99.90
24035;DHT22;12242;50.952;4.678;2023-05-09T12:16:26;15.00;99.90
24035;DHT22;12242;50.952;4.678;2023-05-09T12:18:54;15.10;99.90
24035;DHT22;12242;50.952;4.678;2023-05-09T12:21:21;15.30;99.90
24035;DHT22;12242;50.952;4.678;2023-05-09T12:23:49;15.30;99.90
24035;DHT22;12242;50.952;4.678;2023-05-09T12:26:21;15.30;99.90
24035;DHT22;12242;50.952;4.678;2023-05-09T12:28:50;15.30;99.90
24035;DHT22;12242;50.952;4.678;2023-05-09T12:31:18;15.20;99.90
24035;DHT22;12242;50.952;4.678;2023-05-09T12:33:46;15.20;99.90
24035;DHT22;12242;50.952;4.678;2023-05-09T12:36:15;15.40;99.90
24035;DHT22;12242;50.952;4.678;2023-05-09T12:38:54;15.70;99.90
24035;DHT22;12242;50.952;4.678;2023-05-09T12:41:22;15.70;99.90
24035;DHT22;12242;50.952;4.678;2023-05-09T12:43:53;15.30;99.90
24035;DHT22;12242;50.952;4.678;2023-05-09T12:46:21;15.20;99.90
24035;DHT22;12242;50.952;4.678;2023-05-09T12:48:49;15.00;99.90
24035;DHT22;12242;50.952;4.678;2023-05-09T12:51:20;15.10;99.90
24035;DHT22;12242;50.952;4.678;2023-05-09T12:53:48;15.10;99.90
24035;DHT22;12242;50.952;4.678;2023-05-09T12:56:18;15.10;99.90
24035;DHT22;12242;50.952;4.678;2023-05-09T12:58:53;15.00;99.90
24035;DHT22;12242;50.952;4.678;2023-05-09T13:01:27;15.00;99.90
24035;DHT22;12242;50.952;4.678;2023-05-09T13:04:03;15.10;99.90
24035;DHT22;12242;50.952;4.678;2023-05-09T13:06:31;15.30;99.90
24035;DHT22;12242;50.952;4.678;2023-05-09T13:09:00;15.30;99.90
24035;DHT22;12242;50.952;4.678;2023-05-09T13:11:28;15.60;99.90
24035;DHT22;12242;50.952;4.678;2023-05-09T13:13:57;15.70;99.90
24035;DHT22;12242;50.952;4.678;2023-05-09T13:16:24;15.70;99.90
24035;DHT22;12242;50.952;4.678;2023-05-09T13:18:52;15.70;99.90
24035;DHT22;12242;50.952;4.678;2023-05-09T13:21:19;15.30;99.90
24035;DHT22;12242;50.952;4.678;2023-05-09T13:23:47;15.20;99.90
24035;DHT22;12242;50.952;4.678;2023-05-09T13:26:16;14.90;99.90
24035;DHT22;12242;50.952;4.678;2023-05-09T13:28:43;14.60;99.90
24035;DHT22;12242;50.952;4.678;2023-05-09T13:31:11;14.60;99.90
24035;DHT22;12242;50.952;4.678;2023-05-09T13:33:39;14.50;99.90
24035;DHT22;12242;50.952;4.678;2023-05-09T13:36:06;14.50;99.90
24035;DHT22;12242;50.952;4.678;2023-05-09T13:38:35;14.90;99.90
24035;DHT22;12242;50.952;4.678;2023-05-09T13:41:08;14.90;99.90
24035;DHT22;12242;50.952;4.678;2023-05-09T13:43:36;14.80;99.90
24035;DHT22;12242;50.952;4.678;2023-05-09T13:46:03;14.90;99.90
24035;DHT22;12242;50.952;4.678;2023-05-09T13:48:31;15.00;99.90
24035;DHT22;12242;50.952;4.678;2023-05-09T13:50:59;14.70;99.90
24035;DHT22;12242;50.952;4.678;2023-05-09T13:53:27;14.70;99.90
24035;DHT22;12242;50.952;4.678;2023-05-09T13:55:55;14.80;99.90
24035;DHT22;12242;50.952;4.678;2023-05-09T13:58:22;14.80;99.90
24035;DHT22;12242;50.952;4.678;2023-05-09T14:00:50;14.90;99.90
24035;DHT22;12242;50.952;4.678;2023-05-09T14:03:17;15.10;99.90
24035;DHT22;12242;50.952;4.678;2023-05-09T14:05:45;15.20;99.90
24035;DHT22;12242;50.952;4.678;2023-05-09T14:08:14;15.20;99.90
24035;DHT22;12242;50.952;4.678;2023-05-09T14:10:42;14.80;99.90
24035;DHT22;12242;50.952;4.678;2023-05-09T14:13:10;14.90;99.90
24035;DHT22;12242;50.952;4.678;2023-05-09T14:15:39;15.10;99.90
24035;DHT22;12242;50.952;4.678;2023-05-09T14:18:06;15.30;99.90
24035;DHT22;12242;50.952;4.678;2023-05-09T14:20:34;15.60;99.90
24035;DHT22;12242;50.952;4.678;2023-05-09T14:23:03;15.60;99.90
24035;DHT22;12242;50.952;4.678;2023-05-09T14:25:31;15.50;99.90
24035;DHT22;12242;50.952;4.678;2023-05-09T14:27:59;15.20;99.90
24035;DHT22;12242;50.952;4.678;2023-05-09T14:30:26;15.20;99.90
24035;DHT22;12242;50.952;4.678;2023-05-09T14:32:54;15.50;99.90
24035;DHT22;12242;50.952;4.678;2023-05-09T14:35:22;15.60;99.90
24035;DHT22;12242;50.952;4.678;2023-05-09T14:37:50;15.50;99.90
24035;DHT22;12242;50.952;4.678;2023-05-09T14:40:19;15.20;99.90
24035;DHT22;12242;50.952;4.678;2023-05-09T14:42:47;15.30;99.90
24035;DHT22;12242;50.952;4.678;2023-05-09T14:45:14;15.30;99.90
24035;DHT22;12242;50.952;4.678;2023-05-09T14:47:43;15.00;99.90
24035;DHT22;12242;50.952;4.678;2023-05-09T14:50:10;15.20;99.90
24035;DHT22;12242;50.952;4.678;2023-05-09T14:52:42;15.20;99.90
24035;DHT22;12242;50.952;4.678;2023-05-09T14:55:10;15.20;99.90
24035;DHT22;12242;50.952;4.678;2023-05-09T14:57:38;15.20;99.90
24035;DHT22;12242;50.952;4.678;2023-05-09T15:00:06;15.20;99.90
24035;DHT22;12242;50.952;4.678;2023-05-09T15:02:47;15.10;99.90
24035;DHT22;12242;50.952;4.678;2023-05-09T15:05:15;15.10;99.90
24035;DHT22;12242;50.952;4.678;2023-05-09T15:07:43;14.90;99.90
24035;DHT22;12242;50.952;4.678;2023-05-09T15:10:10;14.90;99.90
24035;DHT22;12242;50.952;4.678;2023-05-09T15:12:38;14.70;99.90
24035;DHT22;12242;50.952;4.678;2023-05-09T15:15:16;14.80;99.90
24035;DHT22;12242;50.952;4.678;2023-05-09T15:17:44;14.70;99.90
24035;DHT22;12242;50.952;4.678;2023-05-09T15:20:13;14.70;99.90
24035;DHT22;12242;50.952;4.678;2023-05-09T15:22:47;14.60;99.90
24035;DHT22;12242;50.952;4.678;2023-05-09T15:25:15;14.60;99.90
24035;DHT22;12242;50.952;4.678;2023-05-09T15:27:43;14.60;99.90
24035;DHT22;12242;50.952;4.678;2023-05-09T15:30:11;14.70;99.90
24035;DHT22;12242;50.952;4.678;2023-05-09T15:32:39;14.60;99.90
24035;DHT22;12242;50.952;4.678;2023-05-09T15:35:09;14.60;99.90
24035;DHT22;12242;50.952;4.678;2023-05-09T15:37:39;14.70;99.90
24035;DHT22;12242;50.952;4.678;2023-05-09T15:40:08;14.90;99.90
24035;DHT22;12242;50.952;4.678;2023-05-09T15:42:37;14.90;99.90
24035;DHT22;12242;50.952;4.678;2023-05-09T15:45:06;14.90;99.90
24035;DHT22;12242;50.952;4.678;2023-05-09T15:47:34;14.70;99.90
24035;DHT22;12242;50.952;4.678;2023-05-09T15:50:02;14.60;99.90
24035;DHT22;12242;50.952;4.678;2023-05-09T15:52:30;14.60;99.90
24035;DHT22;12242;50.952;4.678;2023-05-09T15:54:58;14.70;99.90
24035;DHT22;12242;50.952;4.678;2023-05-09T15:57:26;14.60;99.90
24035;DHT22;12242;50.952;4.678;2023-05-09T15:59:53;14.60;99.90